This is the latest recevied weather packets stored in our database for station/object BMCB-15. If no packets are shown the sender has not sent any weather packets the latest 10 day(s).
| Time | Temp. | Humidity | Pressure | Rain* | Wind** | Luminosity | Snow |
|---|---|---|---|---|---|---|---|
| 1777390842 | 19.44° C | 41% | 1020.6 hPa | 0 mm | - | 452 W/m² | - |
| 1777389639 | 19.44° C | 41% | 1020.7 hPa | 0 mm | - | 506 W/m² | - |
| 1777377640 | 17.22° C | 47% | 1021.7 hPa | 0 mm | - | 784 W/m² | - |
| 1777376438 | 16.67° C | 48% | 1021.9 hPa | 0 mm | - | 782 W/m² | - |
| 1777375838 | 16.67° C | 48% | 1021.9 hPa | 0 mm | - | 782 W/m² | - |
| 1777374038 | 16.11° C | 50% | 1022.2 hPa | 0 mm | - | 766 W/m² | - |
| 1777368640 | 14.44° C | 56% | 1022.6 hPa | 0 mm | - | 660 W/m² | - |
| 1777368038 | 14.44° C | 57% | 1022.6 hPa | 0 mm | - | 590 W/m² | - |
| 1777367438 | 13.89° C | 57% | 1022.7 hPa | 0 mm | - | 580 W/m² | - |
| 1777363840 | 12.22° C | 62% | 1022.5 hPa | 0 mm | - | 474 W/m² | - |
| 1777360836 | 10° C | 67% | 1022.4 hPa | 0 mm | - | 340 W/m² | - |
| 1777360238 | 10° C | 68% | 1022.4 hPa | 0 mm | - | 312 W/m² | - |
| 1777357237 | 8.33° C | 72% | 1022.4 hPa | 0 mm | - | 80 W/m² | - |
| 1777342237 | 8.89° C | 64% | 1022.7 hPa | 0 mm | - | 0 W/m² | - |
| 1777336238 | 10° C | 60% | 1022.7 hPa | 0 mm | - | 0 W/m² | - |
| 1777327843 | 11.67° C | 55% | 1022.7 hPa | 0 mm | - | 0 W/m² | - |
| 1777326647 | 11.67° C | 54% | 1022.6 hPa | 0 mm | - | 0 W/m² | - |
| 1777324849 | 12.22° C | 52% | 1022.6 hPa | 0 mm | - | 0 W/m² | - |
| 1777323647 | 12.78° C | 50% | 1022.6 hPa | 0 mm | - | 0 W/m² | - |
| 1777321846 | 12.78° C | 49% | 1022.7 hPa | 0 mm | - | 0 W/m² | - |
| 1777319446 | 13.89° C | 45% | 1022.7 hPa | 0 mm | - | 0 W/m² | - |
| 1777318244 | 14.44° C | 44% | 1022.6 hPa | 0 mm | - | 0 W/m² | - |
| 1777317648 | 14.44° C | 43% | 1022.6 hPa | 0 mm | - | 0 W/m² | - |
| 1777303843 | 18.89° C | 28% | 1022.7 hPa | 0 mm | - | 366 W/m² | - |
| 1777302042 | 18.33° C | 33% | 1023.2 hPa | 0 mm | - | 570 W/m² | - |
* Rain latest hour (hover to see other rain measurements)
** Current wind speed in m/s (hover to see current wind gust speed)